Time;durP1;ratioP1;P1;durP2;ratioP2;P2;SDS_P1;SDS_P2;PMS_P1;PMS_P2;Temp;Humidity;BMP_temperature;BMP_pressure;BME280_temperature;BME280_humidity;BME280_pressure;Samples;Min_cycle;Max_cycle;Signal;HPM_P1;HPM_P2
2022/10/19 00:00:29;;;;;;;0.10;0.10;;;;;;;8.84;76.73;99113.47;5092433;28;20471;-63
2022/10/19 00:02:55;;;;;;;0.10;0.10;;;;;;;8.84;76.72;99115.38;5085014;28;20072;-63
2022/10/19 00:05:21;;;;;;;0.10;0.10;;;;;;;8.84;76.96;99124.34;5084434;28;20426;-63
2022/10/19 00:07:47;;;;;;;0.10;0.10;;;;;;;8.87;76.58;99109.38;5084435;28;20416;-63
2022/10/19 00:10:13;;;;;;;0.10;0.10;;;;;;;8.88;76.51;99119.16;5084632;28;20051;-64
2022/10/19 00:12:39;;;;;;;0.10;0.10;;;;;;;8.88;76.62;99116.44;5086774;28;20040;-64
2022/10/19 00:15:07;;;;;;;0.10;0.10;;;;;;;8.87;76.69;99109.38;5085280;28;20502;-64
2022/10/19 00:17:33;;;;;;;0.10;0.10;;;;;;;8.91;76.64;99108.53;5085945;28;20047;-64
2022/10/19 00:19:59;;;;;;;0.10;0.10;;;;;;;8.92;76.56;99088.34;5082591;28;20281;-63
2022/10/19 00:22:25;;;;;;;0.10;0.10;;;;;;;8.96;76.40;99087.78;5103766;28;20043;-63
2022/10/19 00:24:51;;;;;;;0.10;0.10;;;;;;;8.96;76.46;99071.41;5104212;28;20050;-64
2022/10/19 00:27:17;;;;;;;0.10;0.10;;;;;;;8.97;76.60;99070.31;5106446;28;20059;-63
2022/10/19 00:29:43;;;;;;;0.10;0.10;;;;;;;8.97;76.64;99073.03;5087579;28;20097;-63
2022/10/19 00:32:10;;;;;;;0.10;0.10;;;;;;;8.99;76.63;99074.41;5105005;28;20043;-68
2022/10/19 00:34:36;;;;;;;0.10;0.10;;;;;;;9.05;76.27;99086.06;5104472;28;20463;-65
2022/10/19 00:37:02;;;;;;;0.10;0.10;;;;;;;9.00;76.08;99078.75;5106928;28;20097;-65
2022/10/19 00:39:28;;;;;;;0.10;0.10;;;;;;;8.95;75.84;99070.59;5103506;28;20048;-66
2022/10/19 00:41:54;;;;;;;0.10;0.10;;;;;;;8.91;75.60;99059.44;5103122;28;20075;-65
2022/10/19 00:44:57;;;;;;;0.10;0.10;;;;;;;8.88;75.51;99070.91;5104921;27;20108;-65
2022/10/19 00:47:24;;;;;;;0.10;0.10;;;;;;;8.89;75.57;99055.38;5061691;28;20052;-65
2022/10/19 00:49:52;;;;;;;0.10;0.10;;;;;;;8.87;75.83;99047.47;5106068;28;20183;-65
2022/10/19 00:52:22;;;;;;;0.10;0.10;;;;;;;8.87;75.88;99042.00;5101763;28;20044;-66
2022/10/19 00:54:51;;;;;;;0.10;0.10;;;;;;;8.87;76.03;99052.91;5104180;28;20059;-66
2022/10/19 00:57:17;;;;;;;0.10;0.10;;;;;;;8.90;75.56;99049.66;5103629;28;20082;-64
2022/10/19 00:59:45;;;;;;;0.10;0.10;;;;;;;8.95;75.23;99054.22;5105620;28;20084;-65
2022/10/19 01:02:11;;;;;;;0.10;0.10;;;;;;;8.97;75.03;99059.41;5094804;28;20058;-66
2022/10/19 01:04:43;;;;;;;0.10;0.10;;;;;;;8.90;74.69;99059.72;5084288;28;20529;-66
2022/10/19 01:07:09;;;;;;;0.10;0.10;;;;;;;8.85;74.98;99057.03;5082628;28;20284;-65
2022/10/19 01:09:35;;;;;;;0.10;0.10;;;;;;;8.88;74.84;99062.72;5083866;28;20048;-66
2022/10/19 01:12:09;;;;;;;0.10;0.10;;;;;;;8.85;74.90;99066.00;5083488;28;20522;-65
2022/10/19 01:14:44;;;;;;;0.10;0.10;;;;;;;8.88;74.69;99061.91;5082565;28;20052;-66
2022/10/19 01:17:18;;;;;;;0.10;0.10;;;;;;;8.86;74.86;99056.75;5084315;28;20058;-66
2022/10/19 01:20:23;;;;;;;0.17;0.17;;;;;;;8.88;75.03;99054.53;5084849;28;20062;-65
2022/10/19 01:23:04;;;;;;;0.10;0.10;;;;;;;8.88;74.75;99045.56;5037256;28;20411;-63
2022/10/19 01:25:45;;;;;;;0.32;0.20;;;;;;;8.92;74.69;99052.06;5104733;28;20103;-63
2022/10/19 01:28:24;;;;;;;0.10;0.10;;;;;;;8.95;74.71;99046.06;5105441;27;20126;-63
2022/10/19 01:30:58;;;;;;;0.10;0.10;;;;;;;8.93;74.42;99059.16;5085904;28;20048;-61
2022/10/19 01:33:36;;;;;;;0.10;0.10;;;;;;;8.91;74.52;99061.34;5102392;28;20128;-63
2022/10/19 01:36:13;;;;;;;0.15;0.10;;;;;;;8.87;74.45;99058.38;5106566;28;20051;-64
2022/10/19 01:38:49;;;;;;;0.10;0.10;;;;;;;8.89;74.45;99055.38;5103687;28;20481;-63
2022/10/19 01:41:20;;;;;;;0.10;0.10;;;;;;;8.87;74.55;99050.19;5104635;28;20108;-63
2022/10/19 01:43:54;;;;;;;0.10;0.10;;;;;;;8.82;74.41;99044.78;5102265;28;20138;-63
2022/10/19 01:46:29;;;;;;;0.10;0.10;;;;;;;8.82;74.65;99033.88;5104275;28;20059;-63
2022/10/19 01:49:00;;;;;;;0.10;0.10;;;;;;;8.86;74.65;99028.69;5101727;28;20046;-63
2022/10/19 01:51:30;;;;;;;0.17;0.13;;;;;;;8.90;74.79;99014.22;5102398;28;20044;-64
2022/10/19 01:54:01;;;;;;;0.10;0.10;;;;;;;8.89;74.58;99012.56;5105877;28;20035;-63
2022/10/19 01:56:30;;;;;;;0.25;0.20;;;;;;;8.92;74.66;99000.28;5103687;28;20139;-63
2022/10/19 01:58:59;;;;;;;0.10;0.10;;;;;;;8.96;74.48;99005.97;5105508;28;20047;-65
2022/10/19 02:01:33;;;;;;;0.47;0.10;;;;;;;8.98;74.66;98990.16;5105546;28;20047;-66
2022/10/19 02:04:01;;;;;;;0.10;0.10;;;;;;;9.02;74.64;98989.31;5104122;28;20047;-65
2022/10/19 02:06:26;;;;;;;;;;;;;;;9.06;74.57;98984.09;5103628;28;20582;-65
2022/10/19 02:08:53;;;;;;;0.10;0.10;;;;;;;9.11;74.56;98977.78;5104877;28;19962;-65
2022/10/19 02:11:21;;;;;;;0.10;0.10;;;;;;;9.14;74.82;98977.22;5102522;28;20426;-65
2022/10/19 02:13:50;;;;;;;;;;;;;;;9.14;75.08;98978.03;5102105;28;20055;-65
2022/10/19 02:16:24;;;;;;;0.45;0.10;;;;;;;9.10;75.55;98974.25;5103966;28;19924;-66
2022/10/19 02:18:53;;;;;;;0.10;0.10;;;;;;;9.05;75.84;98977.81;5105839;28;20122;-67
2022/10/19 02:21:20;;;;;;;0.10;0.10;;;;;;;8.98;76.32;98974.63;5105217;28;20049;-66
2022/10/19 02:23:46;;;;;;;0.10;0.10;;;;;;;8.98;76.79;98973.78;5101610;28;20044;-65
2022/10/19 02:26:12;;;;;;;0.10;0.10;;;;;;;8.96;77.00;98978.72;5105097;28;20078;-65
2022/10/19 02:28:38;;;;;;;0.10;0.10;;;;;;;8.96;77.54;98970.53;5103082;28;20039;-65
2022/10/19 02:31:04;;;;;;;0.10;0.10;;;;;;;8.94;77.56;98971.63;5105724;28;20074;-65
2022/10/19 02:33:31;;;;;;;0.10;0.10;;;;;;;8.94;77.73;98966.19;5104730;28;20063;-64
2022/10/19 02:35:59;;;;;;;0.17;0.10;;;;;;;8.99;77.69;98964.50;5105205;28;20043;-66
2022/10/19 02:38:26;;;;;;;0.10;0.10;;;;;;;9.00;77.52;98960.69;5091790;28;20055;-66
2022/10/19 02:41:01;;;;;;;0.10;0.10;;;;;;;8.94;77.50;98959.91;5066377;28;20135;-64
2022/10/19 02:43:30;;;;;;;0.25;0.20;;;;;;;8.90;77.67;98956.97;5083612;28;20047;-66
2022/10/19 02:46:02;;;;;;;0.13;0.13;;;;;;;8.86;77.85;98947.69;5081350;28;20767;-65
2022/10/19 02:48:32;;;;;;;0.10;0.10;;;;;;;8.83;77.87;98937.38;5087960;28;20126;-65
2022/10/19 02:50:59;;;;;;;0.20;0.20;;;;;;;8.74;78.30;98933.59;5082014;28;20044;-65
2022/10/19 02:53:25;;;;;;;0.10;0.10;;;;;;;8.70;78.68;98933.38;5084907;28;20040;-64
2022/10/19 02:55:51;;;;;;;0.13;0.13;;;;;;;8.67;78.58;98938.56;5083834;28;20040;-67
2022/10/19 02:58:17;;;;;;;0.10;0.10;;;;;;;8.62;78.77;98942.16;5081466;28;20054;-65
2022/10/19 03:00:43;;;;;;;0.10;0.10;;;;;;;8.57;78.93;98942.19;5087502;28;20043;-63
2022/10/19 03:03:10;;;;;;;0.10;0.10;;;;;;;8.54;78.90;98934.59;5064577;28;20116;-63
2022/10/19 03:05:36;;;;;;;0.10;0.10;;;;;;;8.52;79.33;98937.56;5083608;28;20056;-63
2022/10/19 03:08:03;;;;;;;0.10;0.10;;;;;;;8.52;79.55;98932.13;5084751;28;20469;-63
2022/10/19 03:10:29;;;;;;;0.10;0.10;;;;;;;8.52;79.47;98929.41;5084924;28;20056;-63
2022/10/19 03:12:57;;;;;;;0.10;0.10;;;;;;;8.51;79.71;98933.22;5081640;28;20443;-63
2022/10/19 03:15:26;;;;;;;0.17;0.15;;;;;;;8.52;79.71;98929.41;5081818;28;20087;-62
2022/10/19 03:17:52;;;;;;;0.10;0.10;;;;;;;8.53;79.77;98922.06;5079606;28;20542;-63
2022/10/19 03:20:18;;;;;;;0.10;0.10;;;;;;;8.59;79.73;98920.91;5087701;28;20128;-63
2022/10/19 03:22:44;;;;;;;0.10;0.10;;;;;;;8.60;79.73;98926.09;5087420;28;20078;-64
2022/10/19 03:25:11;;;;;;;0.10;0.10;;;;;;;8.59;79.78;98919.03;5079918;28;20044;-63
2022/10/19 03:27:39;;;;;;;0.10;0.10;;;;;;;8.56;79.80;98916.03;5086236;28;20135;-64
2022/10/19 03:30:05;;;;;;;0.10;0.10;;;;;;;8.54;79.80;98913.59;5083516;28;20150;-64
2022/10/19 03:32:31;;;;;;;0.10;0.10;;;;;;;8.55;80.04;98914.41;5101179;28;20058;-63
2022/10/19 03:34:57;;;;;;;0.22;0.10;;;;;;;8.57;80.09;98910.28;5107668;28;20301;-64
2022/10/19 03:37:23;;;;;;;0.20;0.20;;;;;;;8.61;79.64;98910.53;5106628;28;20044;-64
2022/10/19 03:39:49;;;;;;;0.32;0.10;;;;;;;8.58;79.67;98911.91;5106652;28;20426;-63
2022/10/19 03:42:16;;;;;;;0.20;0.20;;;;;;;8.57;79.86;98907.56;5107570;28;20052;-63
2022/10/19 03:44:42;;;;;;;0.10;0.10;;;;;;;8.52;79.83;98904.88;5106408;28;20138;-63
2022/10/19 03:47:08;;;;;;;0.10;0.10;;;;;;;8.55;79.59;98907.03;5107827;28;20142;-62
2022/10/19 03:49:34;;;;;;;0.10;0.10;;;;;;;8.55;79.67;98903.50;5106752;28;20344;-63
2022/10/19 03:52:00;;;;;;;0.10;0.10;;;;;;;8.56;79.88;98908.66;5104392;28;20043;-64
2022/10/19 03:54:26;;;;;;;0.10;0.10;;;;;;;8.57;80.04;98898.59;5102753;28;20036;-64
2022/10/19 03:56:52;;;;;;;0.10;0.10;;;;;;;8.60;80.25;98887.94;5106601;28;20573;-63
2022/10/19 03:59:20;;;;;;;0.30;0.20;;;;;;;8.65;80.10;98892.53;5106657;28;20594;-64
2022/10/19 04:01:46;;;;;;;0.50;0.20;;;;;;;8.65;79.94;98887.06;5100184;28;20055;-64
2022/10/19 04:04:15;;;;;;;0.10;0.10;;;;;;;8.65;80.13;98878.91;5104204;28;20287;-63
2022/10/19 04:06:43;;;;;;;0.10;0.10;;;;;;;8.62;80.06;98885.75;5105183;28;20437;-63
2022/10/19 04:09:12;;;;;;;0.10;0.10;;;;;;;8.56;80.27;98870.50;5106914;28;20422;-67
2022/10/19 04:11:38;;;;;;;0.10;0.10;;;;;;;8.44;80.38;98859.16;5106557;28;20095;-63
2022/10/19 04:14:04;;;;;;;0.10;0.10;;;;;;;8.55;80.55;98868.09;5105261;28;20058;-64
2022/10/19 04:16:32;;;;;;;0.15;0.15;;;;;;;8.59;80.31;98867.25;5106492;28;20051;-64
2022/10/19 04:18:58;;;;;;;0.20;0.20;;;;;;;8.58;80.74;98859.34;5106206;28;20054;-63
2022/10/19 04:21:27;;;;;;;0.10;0.10;;;;;;;8.51;80.24;98846.03;5088612;28;20507;-63
2022/10/19 04:23:56;;;;;;;1.30;0.10;;;;;;;8.50;80.25;98852.59;5107297;28;20059;-64
2022/10/19 04:26:23;;;;;;;0.10;0.10;;;;;;;8.48;80.29;98850.09;5103701;28;20056;-63
2022/10/19 04:28:49;;;;;;;0.10;0.10;;;;;;;8.46;80.35;98848.78;5105929;28;20048;-64
2022/10/19 04:31:15;;;;;;;0.10;0.10;;;;;;;8.41;80.30;98848.81;5106796;27;20389;-63
2022/10/19 04:33:42;;;;;;;0.10;0.10;;;;;;;8.37;80.48;98846.66;5108049;28;20380;-63
2022/10/19 04:36:10;;;;;;;0.10;0.10;;;;;;;8.42;80.31;98843.09;5091892;28;20047;-65
2022/10/19 04:38:36;;;;;;;0.10;0.10;;;;;;;8.43;80.31;98852.88;5092711;28;20040;-64
2022/10/19 04:41:04;;;;;;;0.25;0.25;;;;;;;8.36;80.12;98853.19;5083590;28;20109;-64
2022/10/19 04:43:30;;;;;;;0.10;0.10;;;;;;;8.25;80.12;98853.56;5089596;28;20089;-65
2022/10/19 04:45:56;;;;;;;0.20;0.10;;;;;;;8.19;80.63;98853.56;5093805;28;20175;-63
2022/10/19 04:48:22;;;;;;;0.10;0.10;;;;;;;8.18;80.52;98851.16;5092213;28;20050;-63
2022/10/19 04:50:53;;;;;;;0.10;0.10;;;;;;;8.19;80.48;98842.69;4731614;27;10000248;-63
2022/10/19 04:53:19;;;;;;;0.45;0.20;;;;;;;8.18;80.03;98840.25;5082125;28;20130;-63
2022/10/19 04:55:45;;;;;;;0.10;0.10;;;;;;;8.17;80.24;98835.91;5094662;28;20143;-64
2022/10/19 04:58:11;;;;;;;0.10;0.10;;;;;;;8.18;79.89;98832.09;5105455;28;20052;-64
2022/10/19 05:00:37;;;;;;;0.10;0.10;;;;;;;8.17;79.74;98830.47;5088733;28;20044;-65
2022/10/19 05:03:03;;;;;;;0.10;0.10;;;;;;;8.21;79.75;98828.78;5096423;28;20085;-63
2022/10/19 05:05:31;;;;;;;0.20;0.20;;;;;;;8.24;79.64;98828.22;5106110;28;20146;-63
2022/10/19 05:07:58;;;;;;;0.15;0.15;;;;;;;8.29;79.44;98824.66;5101944;28;20055;-63
2022/10/19 05:10:24;;;;;;;0.10;0.10;;;;;;;8.31;79.15;98834.19;5099878;28;20059;-65
2022/10/19 05:12:50;;;;;;;0.10;0.10;;;;;;;8.38;79.13;98833.88;5104446;28;20588;-66
2022/10/19 05:15:16;;;;;;;0.10;0.10;;;;;;;8.43;78.80;98832.97;5105118;28;20112;-65
2022/10/19 05:17:42;;;;;;;0.10;0.10;;;;;;;8.43;78.69;98836.53;5099843;28;20123;-65
2022/10/19 05:20:10;;;;;;;0.10;0.10;;;;;;;8.44;78.16;98834.63;5090488;28;20116;-66
2022/10/19 05:22:36;;;;;;;0.22;0.20;;;;;;;8.41;78.19;98829.72;5078333;28;20040;-66
2022/10/19 05:25:04;;;;;;;0.10;0.10;;;;;;;8.32;78.29;98835.81;5092520;28;20048;-65
2022/10/19 05:27:30;;;;;;;0.10;0.10;;;;;;;8.31;78.26;98831.47;5067858;28;20056;-66
2022/10/19 05:29:56;;;;;;;0.10;0.10;;;;;;;8.23;78.52;98821.97;5105055;28;20051;-65
2022/10/19 05:32:22;;;;;;;0.10;0.10;;;;;;;8.18;78.29;98830.16;5105728;28;20503;-63
2022/10/19 05:34:48;;;;;;;0.10;0.10;;;;;;;8.13;78.58;98824.75;5100027;28;20490;-63
2022/10/19 05:37:15;;;;;;;0.10;0.10;;;;;;;8.16;78.87;98824.19;5102108;28;20049;-63
2022/10/19 05:39:41;;;;;;;0.10;0.10;;;;;;;8.18;78.58;98819.28;5089530;28;20120;-63
2022/10/19 05:42:08;;;;;;;0.10;0.10;;;;;;;8.18;78.41;98824.72;5097198;28;20448;-63
2022/10/19 05:44:35;;;;;;;0.57;0.20;;;;;;;8.21;78.48;98826.06;5091513;28;20135;-62
2022/10/19 05:47:01;;;;;;;0.10;0.10;;;;;;;8.21;78.75;98826.06;5073719;28;20055;-63
2022/10/19 05:49:28;;;;;;;0.10;0.10;;;;;;;8.21;78.72;98817.91;5085735;28;20040;-63
2022/10/19 05:51:54;;;;;;;0.10;0.10;;;;;;;8.24;79.01;98822.78;5093952;28;20050;-64
2022/10/19 05:54:20;;;;;;;0.10;0.10;;;;;;;8.27;78.93;98821.41;5082718;28;20531;-63
2022/10/19 05:56:46;;;;;;;0.10;0.10;;;;;;;8.31;78.87;98809.66;5083024;28;20062;-63
2022/10/19 05:59:16;;;;;;;0.30;0.20;;;;;;;8.30;79.14;98805.31;5083161;28;20080;-63
2022/10/19 06:01:42;;;;;;;0.10;0.10;;;;;;;8.36;79.05;98809.63;5089734;28;20044;-63
2022/10/19 06:04:09;;;;;;;0.10;0.10;;;;;;;8.38;78.91;98806.63;5091862;28;20154;-63
2022/10/19 06:06:35;;;;;;;0.10;0.10;;;;;;;8.35;79.11;98804.44;5085597;28;20048;-63
2022/10/19 06:09:01;;;;;;;0.10;0.10;;;;;;;8.30;79.42;98808.03;5084797;28;20051;-63
2022/10/19 06:11:29;;;;;;;0.15;0.15;;;;;;;8.26;79.50;98804.25;5083218;28;20380;-63
2022/10/19 06:13:57;;;;;;;0.10;0.10;;;;;;;8.33;79.72;98812.91;5092557;28;20058;-64
2022/10/19 06:16:26;;;;;;;0.20;0.20;;;;;;;8.37;79.31;98805.00;5088353;28;20073;-65
2022/10/19 06:18:53;;;;;;;0.10;0.10;;;;;;;8.37;79.46;98807.72;5107447;28;20071;-65
2022/10/19 06:21:24;;;;;;;0.20;0.20;;;;;;;8.32;79.78;98797.69;5108358;28;20064;-63
2022/10/19 06:23:51;;;;;;;0.10;0.10;;;;;;;8.26;79.81;98798.78;5081392;28;20462;-66
2022/10/19 06:26:17;;;;;;;0.10;0.10;;;;;;;8.23;80.14;98793.91;5098248;28;20058;-65
2022/10/19 06:28:43;;;;;;;0.22;0.10;;;;;;;8.29;80.16;98798.25;5100331;28;20134;-65
2022/10/19 06:31:09;;;;;;;0.10;0.10;;;;;;;8.29;80.00;98798.25;5097708;28;20105;-64
2022/10/19 06:33:39;;;;;;;0.10;0.10;;;;;;;8.26;79.85;98798.00;5085781;28;20052;-66
2022/10/19 06:36:05;;;;;;;0.20;0.20;;;;;;;8.29;80.03;98797.41;5085956;28;20082;-66
2022/10/19 06:38:31;;;;;;;0.20;0.20;;;;;;;8.33;79.78;98801.19;5083092;28;20068;-65
2022/10/19 06:40:58;;;;;;;0.10;0.10;;;;;;;8.26;80.02;98793.34;5090129;28;20337;-66
2022/10/19 06:43:24;;;;;;;0.10;0.10;;;;;;;8.29;79.89;98806.41;5121238;28;20083;-65
2022/10/19 06:45:50;;;;;;;0.10;0.10;;;;;;;8.26;79.83;98798.78;5098219;27;20079;-65
2022/10/19 06:48:16;;;;;;;0.15;0.10;;;;;;;8.18;79.82;98793.97;5094525;28;20375;-66
2022/10/19 06:50:44;;;;;;;0.75;0.20;;;;;;;8.11;80.03;98796.19;5108670;27;20061;-66
2022/10/19 06:53:10;;;;;;;0.10;0.10;;;;;;;8.10;80.10;98795.38;5125699;27;20336;-64
2022/10/19 06:55:36;;;;;;;0.10;0.10;;;;;;;8.13;80.08;98794.81;5106776;28;20051;-63
2022/10/19 06:58:02;;;;;;;0.10;0.10;;;;;;;8.15;80.02;98787.16;5088323;28;20389;-63
2022/10/19 07:00:29;;;;;;;0.17;0.17;;;;;;;8.10;79.83;98787.22;5093964;28;20539;-63
2022/10/19 07:02:56;;;;;;;0.22;0.22;;;;;;;8.06;80.15;98805.22;5103280;28;20039;-63
2022/10/19 07:05:22;;;;;;;;;;;;;;;8.03;80.29;98794.88;5104240;28;20069;-64
2022/10/19 07:07:49;;;;;;;0.13;0.10;;;;;;;8.00;80.11;98793.53;5107500;27;20467;-64
2022/10/19 07:10:16;;;;;;;0.10;0.10;;;;;;;7.94;80.36;98791.94;5114853;27;20075;-64
2022/10/19 07:12:42;;;;;;;0.10;0.10;;;;;;;7.88;80.85;98788.47;5104812;28;20047;-64
2022/10/19 07:15:08;;;;;;;0.10;0.10;;;;;;;7.88;81.28;98782.19;5102215;28;20414;-63
2022/10/19 07:17:35;;;;;;;0.20;0.20;;;;;;;7.94;81.62;98781.03;5099371;28;20132;-63
2022/10/19 07:20:02;;;;;;;0.10;0.10;;;;;;;7.98;81.75;98778.56;5098098;28;20067;-63
2022/10/19 07:22:29;;;;;;;0.10;0.10;;;;;;;7.88;82.30;98771.28;5083367;28;20066;-64
2022/10/19 07:24:57;;;;;;;0.10;0.10;;;;;;;8.00;82.46;98785.38;5106158;28;20507;-64
2022/10/19 07:27:23;;;;;;;0.10;0.10;;;;;;;7.92;82.46;98781.34;5111389;27;20146;-64
2022/10/19 07:29:49;;;;;;;0.10;0.10;;;;;;;7.89;82.78;98778.38;5106360;28;20063;-63
2022/10/19 07:32:15;;;;;;;0.10;0.10;;;;;;;7.90;83.23;98780.81;5105598;28;20071;-64
2022/10/19 07:34:41;;;;;;;0.10;0.10;;;;;;;7.90;83.42;98778.09;5103173;28;20092;-63
2022/10/19 07:37:07;;;;;;;0.10;0.10;;;;;;;7.89;83.81;98773.75;5104088;28;20111;-63
2022/10/19 07:39:33;;;;;;;0.10;0.10;;;;;;;7.86;83.76;98777.00;5101920;28;20130;-63
2022/10/19 07:42:01;;;;;;;0.10;0.10;;;;;;;7.80;83.99;98769.97;5102292;28;20147;-63
2022/10/19 07:44:27;;;;;;;;;;;;;;;7.77;84.29;98774.06;5105420;28;20050;-65
2022/10/19 07:46:53;;;;;;;0.10;0.10;;;;;;;7.72;84.44;98776.00;5097205;27;19927;-64
2022/10/19 07:49:19;;;;;;;0.10;0.10;;;;;;;7.74;84.69;98771.91;5099961;28;20131;-64
2022/10/19 07:51:47;;;;;;;0.10;0.10;;;;;;;7.77;84.73;98765.13;5103823;27;20046;-65
2022/10/19 07:54:14;;;;;;;0.10;0.10;;;;;;;7.82;84.71;98772.44;5092459;28;20146;-65
2022/10/19 07:56:40;;;;;;;0.10;0.10;;;;;;;7.89;84.83;98772.91;5082604;28;20270;-66
2022/10/19 07:59:09;;;;;;;0.10;0.10;;;;;;;7.93;84.71;98768.53;5098379;28;20049;-66
2022/10/19 08:01:40;;;;;;;0.10;0.10;;;;;;;7.95;84.75;98774.50;5098920;28;20047;-66
2022/10/19 08:04:06;;;;;;;0.10;0.10;;;;;;;8.02;84.74;98772.28;5104079;27;20039;-63
2022/10/19 08:06:32;;;;;;;0.10;0.10;;;;;;;8.01;84.57;98775.28;5101869;28;20097;-63
2022/10/19 08:08:58;;;;;;;0.10;0.10;;;;;;;7.97;84.75;98776.94;5095974;27;20047;-63
2022/10/19 08:11:27;;;;;;;0.10;0.10;;;;;;;7.97;85.01;98785.13;5102186;28;20083;-63
2022/10/19 08:13:53;;;;;;;0.10;0.10;;;;;;;7.93;85.18;98782.13;5106254;28;20082;-64
2022/10/19 08:16:24;;;;;;;0.10;0.10;;;;;;;7.92;85.27;98784.06;5104105;28;20518;-63
2022/10/19 08:18:51;;;;;;;0.10;0.10;;;;;;;8.00;85.50;98777.22;5107561;28;20058;-65
2022/10/19 08:21:17;;;;;;;0.10;0.10;;;;;;;8.07;85.65;98776.91;5106212;28;20495;-65
2022/10/19 08:23:43;;;;;;;0.10;0.10;;;;;;;8.12;86.06;98776.03;5106052;27;20071;-65
2022/10/19 08:26:09;;;;;;;0.20;0.10;;;;;;;8.16;86.29;98774.38;5104697;28;20459;-65
2022/10/19 08:28:35;;;;;;;0.10;0.10;;;;;;;8.20;86.40;98778.16;5107591;28;20502;-66
2022/10/19 08:31:08;;;;;;;0.10;0.10;;;;;;;8.18;86.49;98775.69;5109782;28;20047;-65
2022/10/19 08:33:36;;;;;;;0.10;0.10;;;;;;;8.17;86.46;98773.28;5103712;28;20044;-63
2022/10/19 08:36:03;;;;;;;0.10;0.10;;;;;;;8.21;86.46;98766.16;5104486;28;20379;-64
2022/10/19 08:38:29;;;;;;;0.13;0.13;;;;;;;8.25;86.34;98771.88;5105700;28;20096;-64
2022/10/19 08:40:57;;;;;;;0.10;0.10;;;;;;;8.23;86.58;98772.13;5100597;28;20066;-65
2022/10/19 08:43:33;;;;;;;0.10;0.10;;;;;;;8.14;86.97;98768.41;5104867;28;20047;-63
2022/10/19 08:46:08;;;;;;;0.10;0.10;;;;;;;8.08;87.29;98767.63;5099525;27;20039;-64
2022/10/19 08:48:38;;;;;;;0.10;0.10;;;;;;;8.01;87.89;98767.94;5103091;28;20040;-64
2022/10/19 08:51:05;;;;;;;1.55;0.10;;;;;;;7.90;88.02;98760.94;5105106;28;20069;-64
2022/10/19 08:53:39;;;;;;;0.20;0.20;;;;;;;7.87;87.94;98758.78;5088394;28;20043;-64
2022/10/19 08:56:20;;;;;;;0.10;0.10;;;;;;;7.82;88.26;98762.34;5103739;28;20079;-64
2022/10/19 08:58:56;;;;;;;0.10;0.10;;;;;;;7.88;88.51;98754.97;5109677;27;20077;-64
2022/10/19 09:01:35;;;;;;;0.10;0.10;;;;;;;7.85;88.14;98756.34;5113067;27;20138;-64
2022/10/19 09:04:08;;;;;;;0.10;0.10;;;;;;;7.88;87.63;98760.41;5106338;28;20395;-64
2022/10/19 09:06:47;;;;;;;0.10;0.10;;;;;;;7.91;87.75;98762.56;5103960;28;20516;-64
2022/10/19 09:09:14;;;;;;;0.20;0.20;;;;;;;7.93;87.10;98753.03;5124687;27;20095;-64
2022/10/19 09:11:43;;;;;;;0.17;0.17;;;;;;;7.97;87.01;98760.63;5126227;27;20142;-64
2022/10/19 09:14:14;;;;;;;0.10;0.10;;;;;;;7.99;86.73;98761.97;5122832;27;20043;-64
2022/10/19 09:16:41;;;;;;;0.10;0.10;;;;;;;7.95;86.19;98775.34;5122795;27;20047;-64
2022/10/19 09:19:17;;;;;;;0.10;0.10;;;;;;;7.95;86.29;98775.34;5122853;27;20039;-64
2022/10/19 09:21:48;;;;;;;0.10;0.10;;;;;;;7.91;86.25;98765.28;5106523;27;20054;-69
2022/10/19 09:24:27;;;;;;;0.10;0.10;;;;;;;7.89;85.78;98771.03;5110569;27;20047;-65
2022/10/19 09:26:56;;;;;;;0.10;0.10;;;;;;;7.89;86.24;98776.47;5100421;28;20069;-66
2022/10/19 09:29:26;;;;;;;0.15;0.15;;;;;;;7.97;86.35;98774.22;5101775;27;20048;-67
2022/10/19 09:31:55;;;;;;;0.13;0.13;;;;;;;8.05;86.16;98768.19;5104989;28;20171;-65
2022/10/19 09:34:25;;;;;;;0.20;0.20;;;;;;;8.13;86.34;98769.50;5105457;28;20457;-65
2022/10/19 09:36:55;;;;;;;0.20;0.20;;;;;;;8.22;86.00;98768.63;5101917;28;20047;-66
2022/10/19 09:39:22;;;;;;;0.10;0.10;;;;;;;8.18;85.94;98767.53;5098907;28;20472;-64
2022/10/19 09:41:52;;;;;;;0.10;0.10;;;;;;;8.16;86.29;98771.66;5105053;27;20048;-65
2022/10/19 09:44:19;;;;;;;0.10;0.10;;;;;;;8.11;86.46;98768.94;5108088;27;20315;-65
2022/10/19 09:46:51;;;;;;;0.10;0.10;;;;;;;8.07;86.71;98766.81;5105489;27;20638;-65
2022/10/19 09:49:17;;;;;;;0.10;0.10;;;;;;;8.12;86.48;98773.28;5099351;28;20480;-65
2022/10/19 09:51:50;;;;;;;0.10;0.10;;;;;;;8.11;86.71;98777.94;5103122;27;20054;-65
2022/10/19 09:54:31;;;;;;;0.10;0.10;;;;;;;8.08;86.62;98782.03;5101547;28;20293;-66
2022/10/19 09:56:57;;;;;;;0.10;0.10;;;;;;;8.10;86.76;98768.16;5103147;28;20050;-65
2022/10/19 09:59:27;;;;;;;0.20;0.20;;;;;;;8.11;86.36;98775.22;5105603;28;20047;-65
2022/10/19 10:02:13;;;;;;;0.10;0.10;;;;;;;8.16;86.61;98782.56;5104972;28;20057;-66
2022/10/19 10:04:39;;;;;;;0.10;0.10;;;;;;;8.19;86.40;98777.31;5101129;28;20411;-66
2022/10/19 10:07:15;;;;;;;0.10;0.10;;;;;;;8.19;85.88;98779.25;5103939;28;20047;-65
2022/10/19 10:09:43;;;;;;;0.10;0.10;;;;;;;8.17;85.72;98765.13;5102487;28;20423;-65
2022/10/19 10:12:12;;;;;;;0.13;0.13;;;;;;;8.20;85.59;98769.97;5106007;28;20066;-65
2022/10/19 10:14:39;;;;;;;0.10;0.10;;;;;;;8.06;85.24;98754.28;5104356;28;20047;-64
2022/10/19 10:17:11;;;;;;;0.10;0.10;;;;;;;8.08;84.89;98776.59;5104230;28;20054;-64
2022/10/19 10:19:49;;;;;;;0.10;0.10;;;;;;;7.97;84.63;98768.78;5121428;27;20082;-64
2022/10/19 10:22:24;;;;;;;0.10;0.10;;;;;;;7.91;84.65;98773.44;5113948;27;20510;-64
2022/10/19 10:24:53;;;;;;;0.10;0.10;;;;;;;7.88;84.67;98771.28;5104948;27;20092;-65
2022/10/19 10:27:28;;;;;;;0.10;0.10;;;;;;;7.87;84.46;98780.56;5106301;28;20052;-66
2022/10/19 10:29:55;;;;;;;0.10;0.10;;;;;;;7.90;84.87;98782.72;5102648;28;20609;-65
2022/10/19 10:32:22;;;;;;;0.10;0.10;;;;;;;7.93;84.57;98784.88;5103979;28;20426;-65
2022/10/19 10:34:56;;;;;;;0.10;0.10;;;;;;;7.93;84.65;98780.25;5104291;28;20144;-64
2022/10/19 10:37:29;;;;;;;0.10;0.10;;;;;;;7.87;84.82;98789.53;5088037;28;20518;-63
2022/10/19 10:39:57;;;;;;;0.15;0.15;;;;;;;7.84;84.91;98792.00;5104431;28;20056;-65
2022/10/19 10:42:29;;;;;;;0.10;0.10;;;;;;;7.80;85.09;98780.88;5106551;28;20131;-65
2022/10/19 10:44:55;;;;;;;0.10;0.10;;;;;;;7.79;85.40;98788.22;5105319;28;20048;-63
2022/10/19 10:47:22;;;;;;;0.10;0.10;;;;;;;7.77;85.81;98778.72;5099304;28;20047;-64
2022/10/19 10:49:55;;;;;;;0.10;0.10;;;;;;;7.76;87.26;98772.44;5069486;28;20138;-64
2022/10/19 10:52:21;;;;;;;0.10;0.10;;;;;;;7.75;88.88;98783.63;5102597;28;20427;-64
2022/10/19 10:55:01;;;;;;;0.10;0.10;;;;;;;7.69;89.77;98777.41;5105971;28;20047;-64
2022/10/19 10:57:34;;;;;;;0.20;0.20;;;;;;;7.56;91.06;98784.25;5107030;28;20077;-64
2022/10/19 11:00:10;;;;;;;0.10;0.10;;;;;;;7.42;91.91;98785.97;5103343;28;20055;-64
2022/10/19 11:02:41;;;;;;;0.20;0.20;;;;;;;7.30;92.49;98787.09;5105594;28;20081;-64
2022/10/19 11:05:13;;;;;;;0.13;0.13;;;;;;;7.33;92.56;98785.72;5102828;28;20126;-64
2022/10/19 11:07:43;;;;;;;0.10;0.10;;;;;;;7.39;93.04;98776.47;5096798;28;20063;-64
2022/10/19 11:10:21;;;;;;;0.10;0.10;;;;;;;7.41;93.28;98776.97;5104500;28;20189;-64
2022/10/19 11:12:53;;;;;;;0.10;0.10;;;;;;;7.54;93.51;98780.19;5101382;28;20040;-64
2022/10/19 11:15:24;;;;;;;0.10;0.10;;;;;;;7.62;93.08;98776.88;5087056;28;20055;-64
2022/10/19 11:17:58;;;;;;;0.10;0.10;;;;;;;7.71;92.54;98774.38;5086305;28;20221;-64
2022/10/19 11:20:28;;;;;;;0.10;0.10;;;;;;;7.85;92.42;98761.78;5105786;28;20077;-64
2022/10/19 11:23:04;;;;;;;0.20;0.20;;;;;;;8.08;91.77;98759.47;5105241;28;20133;-64
2022/10/19 11:25:41;;;;;;;0.20;0.20;;;;;;;8.28;90.31;98750.31;5105996;28;20168;-64
2022/10/19 11:28:23;;;;;;;0.20;0.20;;;;;;;8.37;88.47;98745.88;5105552;28;20071;-63
2022/10/19 11:30:56;;;;;;;0.10;0.10;;;;;;;8.48;86.66;98753.97;5107480;28;20502;-64
2022/10/19 11:33:36;;;;;;;0.20;0.20;;;;;;;8.53;85.40;98747.69;5106549;28;20043;-64
2022/10/19 11:36:14;;;;;;;0.10;0.10;;;;;;;8.61;85.09;98747.88;5105398;28;20122;-63
2022/10/19 11:38:54;;;;;;;0.10;0.10;;;;;;;8.61;84.72;98752.50;5098980;28;20559;-63
2022/10/19 11:41:30;;;;;;;0.25;0.25;;;;;;;8.65;84.38;98759.00;5105266;28;20174;-64
2022/10/19 11:44:20;;;;;;;0.20;0.20;;;;;;;8.69;84.32;98761.97;5104220;28;20051;-64
2022/10/19 11:46:55;;;;;;;0.20;0.20;;;;;;;8.62;83.12;98730.44;5107201;27;20048;-64
2022/10/19 11:49:32;;;;;;;0.25;0.25;;;;;;;8.61;82.54;98703.44;5108762;28;20044;-64
2022/10/19 11:52:00;;;;;;;;;;;;;;;9.07;82.14;98740.31;5110798;28;20148;-64